PWSweather.com
Personal Weather Stations
Station Observations
PITCARMI1
La Serra, CarmignanoIT 59015

La SerraCarmignanoIT 59015

Lat: 43.804429, Lon: 11.027222

Elevation: 525

Station Type: Davis Vantage Vue

http://www.meteocarmignano.it

High Low Average
Temperature 80.1°F26.7°F 67.5°F19.7°F 72.7°F22.6°F
Dew Point 66.8°F19.3°F 58.0°F14.4°F 63.3°F17.4°F
Winds 6.1 mph WSW9.8 mph WSW Calm Calm 1.7 mph 2.7 mph
Wind Gusts 8.0 mph12.9 mph -- 2.7 mph4.3 mph
Humidity 90% 61% 73%
Pressure 29.88 in1011.90 in 29.81 in1009.50 in -
Precipitation 0.16 in4.10 in - -
Hour Temp Dew Point Humidity Winds Wind Gusts Pressure Precip Precip Rate Daily Precip Total
12:00 AM 72.2°F22.3°C 58.9°F14.9°C 63% Calm Calm -- 29.83 in1010.2 mb 0.00 in0.0 mm 0.00 in/hr0.0 mm/hr 0.00 in0.0 mm
12:30 AM 70.9°F21.6°C 58.6°F14.8°C 65% 1.0 mph SW1.6 kmh SW 1.0 mph1.6 kmh 29.83 in1010.2 mb 0.00 in0.0 mm 0.00 in/hr0.0 mm/hr 0.00 in0.0 mm
01:00 AM 70.4°F21.3°C 58.5°F14.7°C 66% Calm Calm 1.0 mph1.6 kmh 29.82 in1009.8 mb 0.00 in0.0 mm 0.00 in/hr0.0 mm/hr 0.00 in0.0 mm
01:30 AM 70.3°F21.3°C 58.8°F14.9°C 67% Calm Calm -- 29.82 in1009.8 mb 0.00 in0.0 mm 0.00 in/hr0.0 mm/hr 0.00 in0.0 mm
02:00 AM 71.3°F21.8°C 58.1°F14.5°C 63% 0.9 mph ENE1.4 kmh ENE 3.0 mph4.8 kmh 29.82 in1009.8 mb 0.00 in0.0 mm 0.00 in/hr0.0 mm/hr 0.00 in0.0 mm
02:30 AM 70.3°F21.3°C 58.4°F14.7°C 66% 1.0 mph ENE1.6 kmh ENE 2.0 mph3.2 kmh 29.82 in1009.8 mb 0.00 in0.0 mm 0.00 in/hr0.0 mm/hr 0.00 in0.0 mm
03:00 AM 69.0°F20.6°C 58.0°F14.4°C 68% 1.1 mph WSW1.8 kmh WSW 2.0 mph3.2 kmh 29.81 in1009.5 mb 0.00 in0.0 mm 0.00 in/hr0.0 mm/hr 0.00 in0.0 mm
03:30 AM 69.1°F20.6°C 58.5°F14.7°C 69% Calm Calm -- 29.81 in1009.5 mb 0.00 in0.0 mm 0.00 in/hr0.0 mm/hr 0.00 in0.0 mm
04:00 AM 69.0°F20.6°C 58.8°F14.9°C 70% Calm Calm -- 29.81 in1009.5 mb 0.00 in0.0 mm 0.00 in/hr0.0 mm/hr 0.00 in0.0 mm
04:30 AM 69.5°F20.8°C 60.0°F15.6°C 72% 1.9 mph SW3.1 kmh SW 3.0 mph4.8 kmh 29.82 in1009.8 mb 0.00 in0.0 mm 0.00 in/hr0.0 mm/hr 0.00 in0.0 mm
05:00 AM 70.0°F21.1°C 60.2°F15.7°C 71% Calm Calm -- 29.81 in1009.5 mb 0.00 in0.0 mm 0.00 in/hr0.0 mm/hr 0.00 in0.0 mm
05:30 AM 69.7°F20.9°C 60.7°F15.9°C 73% Calm Calm -- 29.81 in1009.5 mb 0.00 in0.0 mm 0.00 in/hr0.0 mm/hr 0.00 in0.0 mm
06:00 AM 69.5°F20.8°C 60.8°F16.0°C 74% 1.0 mph SW1.6 kmh SW 2.0 mph3.2 kmh 29.81 in1009.5 mb 0.00 in0.0 mm 0.00 in/hr0.0 mm/hr 0.00 in0.0 mm
06:30 AM 70.1°F21.2°C 61.4°F16.3°C 74% Calm Calm -- 29.82 in1009.8 mb 0.00 in0.0 mm 0.00 in/hr0.0 mm/hr 0.00 in0.0 mm
07:00 AM 71.8°F22.1°C 61.9°F16.6°C 71% Calm Calm -- 29.82 in1009.8 mb 0.00 in0.0 mm 0.00 in/hr0.0 mm/hr 0.00 in0.0 mm
07:30 AM 73.5°F23.1°C 63.5°F17.5°C 71% Calm Calm -- 29.82 in1009.8 mb 0.00 in0.0 mm 0.00 in/hr0.0 mm/hr 0.00 in0.0 mm
08:00 AM 73.3°F22.9°C 62.9°F17.2°C 70% Calm Calm -- 29.82 in1009.8 mb 0.00 in0.0 mm 0.00 in/hr0.0 mm/hr 0.00 in0.0 mm
08:30 AM 75.0°F23.9°C 62.0°F16.7°C 64% Calm Calm -- 29.82 in1009.8 mb 0.00 in0.0 mm 0.00 in/hr0.0 mm/hr 0.00 in0.0 mm
09:00 AM 75.1°F23.9°C 61.6°F16.4°C 63% Calm Calm -- 29.82 in1009.8 mb 0.00 in0.0 mm 0.00 in/hr0.0 mm/hr 0.00 in0.0 mm
09:30 AM 76.7°F24.8°C 65.3°F18.5°C 68% Calm Calm 1.0 mph1.6 kmh 29.83 in1010.2 mb 0.00 in0.0 mm 0.00 in/hr0.0 mm/hr 0.00 in0.0 mm
10:00 AM 74.3°F23.5°C 63.9°F17.7°C 70% 1.1 mph SW1.8 kmh SW 2.0 mph3.2 kmh 29.83 in1010.2 mb 0.00 in0.0 mm 0.00 in/hr0.0 mm/hr 0.00 in0.0 mm
10:30 AM 71.0°F21.7°C 65.3°F18.5°C 82% 1.6 mph W2.6 kmh W 3.0 mph4.8 kmh 29.85 in1010.8 mb 0.03 in0.8 mm 0.06 in/hr1.5 mm/hr 0.03 in0.8 mm
11:00 AM 68.9°F20.5°C 64.5°F18.1°C 86% 1.4 mph W2.3 kmh W 2.0 mph3.2 kmh 29.86 in1011.2 mb 0.05 in1.3 mm 0.10 in/hr2.5 mm/hr 0.07 in1.8 mm
11:30 AM 68.6°F20.3°C 63.9°F17.7°C 85% 1.1 mph WNW1.8 kmh WNW 3.0 mph4.8 kmh 29.86 in1011.2 mb 0.02 in0.5 mm 0.04 in/hr1.0 mm/hr 0.09 in2.3 mm
12:00 PM 67.5°F19.7°C 63.8°F17.7°C 88% 4.9 mph NW7.9 kmh NW 8.0 mph12.9 kmh 29.86 in1011.2 mb 0.04 in1.0 mm 0.08 in/hr2.0 mm/hr 0.13 in3.3 mm
12:30 PM 68.0°F20.0°C 65.0°F18.3°C 90% 3.8 mph WSW6.1 kmh WSW 7.0 mph11.3 kmh 29.86 in1011.2 mb 0.02 in0.5 mm 0.04 in/hr1.0 mm/hr 0.15 in3.8 mm
01:00 PM 69.4°F20.8°C 65.0°F18.3°C 86% 2.3 mph W3.7 kmh W 3.0 mph4.8 kmh 29.85 in1010.8 mb 0.00 in0.0 mm 0.00 in/hr0.0 mm/hr 0.15 in3.8 mm
01:30 PM 72.2°F22.3°C 64.9°F18.3°C 78% 1.3 mph WNW2.1 kmh WNW 2.0 mph3.2 kmh 29.84 in1010.5 mb 0.00 in0.0 mm 0.00 in/hr0.0 mm/hr 0.15 in3.8 mm
02:00 PM 76.3°F24.6°C 66.2°F19.0°C 71% 0.9 mph N1.4 kmh N 2.0 mph3.2 kmh 29.84 in1010.5 mb 0.00 in0.0 mm 0.00 in/hr0.0 mm/hr 0.15 in3.8 mm
02:30 PM 77.8°F25.4°C 66.8°F19.3°C 69% 1.9 mph E3.1 kmh E 4.0 mph6.4 kmh 29.84 in1010.5 mb 0.00 in0.0 mm 0.00 in/hr0.0 mm/hr 0.15 in3.8 mm
03:00 PM 78.8°F26.0°C 66.0°F18.9°C 65% 2.9 mph E4.7 kmh E 3.0 mph4.8 kmh 29.84 in1010.5 mb 0.00 in0.0 mm 0.00 in/hr0.0 mm/hr 0.15 in3.8 mm
03:30 PM 77.9°F25.5°C 65.6°F18.7°C 66% 1.9 mph WSW3.1 kmh WSW 3.0 mph4.8 kmh 29.83 in1010.2 mb 0.00 in0.0 mm 0.00 in/hr0.0 mm/hr 0.15 in3.8 mm
04:00 PM 80.1°F26.7°C 65.4°F18.6°C 61% 3.6 mph W5.8 kmh W 7.0 mph11.3 kmh 29.82 in1009.8 mb 0.00 in0.0 mm 0.00 in/hr0.0 mm/hr 0.15 in3.8 mm
04:30 PM 78.8°F26.0°C 65.6°F18.7°C 64% 2.8 mph WSW4.5 kmh WSW 4.0 mph6.4 kmh 29.82 in1009.8 mb 0.00 in0.0 mm 0.00 in/hr0.0 mm/hr 0.15 in3.8 mm
05:00 PM 78.8°F26.0°C 64.7°F18.2°C 62% 2.0 mph WSW3.2 kmh WSW 4.0 mph6.4 kmh 29.81 in1009.5 mb 0.00 in0.0 mm 0.00 in/hr0.0 mm/hr 0.15 in3.8 mm
05:30 PM 78.1°F25.6°C 66.2°F19.0°C 67% 1.3 mph SW2.1 kmh SW 4.0 mph6.4 kmh 29.82 in1009.8 mb 0.00 in0.0 mm 0.00 in/hr0.0 mm/hr 0.15 in3.8 mm
06:00 PM 77.5°F25.3°C 66.1°F18.9°C 68% 1.6 mph SW2.6 kmh SW 3.0 mph4.8 kmh 29.81 in1009.5 mb 0.00 in0.0 mm 0.00 in/hr0.0 mm/hr 0.15 in3.8 mm
06:30 PM 76.8°F24.9°C 66.2°F19.0°C 70% 2.2 mph WSW3.5 kmh WSW 4.0 mph6.4 kmh 29.82 in1009.8 mb 0.00 in0.0 mm 0.00 in/hr0.0 mm/hr 0.15 in3.8 mm
07:00 PM 75.9°F24.4°C 66.6°F19.2°C 73% 5.2 mph WSW8.4 kmh WSW 7.0 mph11.3 kmh 29.82 in1009.8 mb 0.00 in0.0 mm 0.00 in/hr0.0 mm/hr 0.15 in3.8 mm
07:30 PM 73.8°F23.2°C 64.6°F18.1°C 73% 6.1 mph WSW9.8 kmh WSW 8.0 mph12.9 kmh 29.82 in1009.8 mb 0.00 in0.0 mm 0.00 in/hr0.0 mm/hr 0.15 in3.8 mm
08:00 PM 73.3°F22.9°C 65.2°F18.4°C 76% 5.3 mph SW8.5 kmh SW 8.0 mph12.9 kmh 29.82 in1009.8 mb 0.00 in0.0 mm 0.00 in/hr0.0 mm/hr 0.15 in3.8 mm
08:30 PM 72.6°F22.6°C 65.7°F18.7°C 79% 4.9 mph SW7.9 kmh SW 7.0 mph11.3 kmh 29.84 in1010.5 mb 0.00 in0.0 mm 0.00 in/hr0.0 mm/hr 0.15 in3.8 mm
09:00 PM 72.2°F22.3°C 66.1°F18.9°C 81% 3.2 mph WSW5.1 kmh WSW 6.0 mph9.7 kmh 29.85 in1010.8 mb 0.00 in0.0 mm 0.00 in/hr0.0 mm/hr 0.15 in3.8 mm
09:30 PM 72.1°F22.3°C 65.9°F18.8°C 81% 3.1 mph SW5.0 kmh SW 4.0 mph6.4 kmh 29.86 in1011.2 mb 0.00 in0.0 mm 0.00 in/hr0.0 mm/hr 0.15 in3.8 mm
10:00 PM 70.5°F21.4°C 65.4°F18.6°C 84% 0.2 mph SE0.3 kmh SE -- 29.86 in1011.2 mb 0.00 in0.0 mm 0.00 in/hr0.0 mm/hr 0.15 in3.8 mm
10:30 PM 70.7°F21.5°C 64.9°F18.3°C 82% 2.9 mph SW4.7 kmh SW 3.0 mph4.8 kmh 29.87 in1011.5 mb 0.00 in0.0 mm 0.00 in/hr0.0 mm/hr 0.15 in3.8 mm
11:00 PM 71.0°F21.7°C 64.5°F18.1°C 80% 3.7 mph WSW6.0 kmh WSW 4.0 mph6.4 kmh 29.88 in1011.9 mb 0.00 in0.0 mm 0.00 in/hr0.0 mm/hr 0.16 in4.1 mm
11:30 PM 70.2°F21.2°C 65.1°F18.4°C 84% Calm Calm -- 29.88 in1011.9 mb 0.00 in0.0 mm 0.00 in/hr0.0 mm/hr 0.16 in4.1 mm